Time;durP1;ratioP1;P1;durP2;ratioP2;P2;SDS_P1;SDS_P2;PMS_P1;PMS_P2;Temp;Humidity;BMP_temperature;BMP_pressure;BME280_temperature;BME280_humidity;BME280_pressure;Samples;Min_cycle;Max_cycle;Signal;HPM_P1;HPM_P2
2023/07/14 00:01:43;;;;;;;;;;;23.60;53.40;;;23.85;36.77;98932.06;4988319;28;115224;-75
2023/07/14 00:04:20;;;;;;;;;;;23.60;53.50;;;23.83;36.65;98931.66;4986729;28;114145;-75
2023/07/14 00:06:46;;;;;;;;;;;23.60;53.50;;;23.80;36.56;98939.75;4972295;28;124187;-75
2023/07/14 00:09:19;;;;;;;;;;;23.60;53.40;;;23.82;36.52;98930.84;4984915;28;123291;-75
2023/07/14 00:11:48;;;;;;;;;;;23.50;53.30;;;23.81;36.56;98924.41;4986588;28;114139;-77
2023/07/14 00:14:15;;;;;;;;;;;23.50;53.40;;;23.83;36.76;98926.84;4994687;28;111927;-76
2023/07/14 00:16:41;;;;;;;;;;;23.60;53.60;;;23.84;36.55;98914.34;4986838;28;124218;-76
2023/07/14 00:19:16;;;;;;;;;;;23.50;53.70;;;23.85;36.84;98915.16;4986125;28;123547;-77
2023/07/14 00:21:45;;;;;;;;;;;23.60;53.90;;;23.86;36.99;98920.41;4987193;28;114390;-76
2023/07/14 00:24:16;;;;;;;;;;;23.50;53.80;;;23.86;36.88;98919.56;4988200;28;113865;-76
2023/07/14 00:26:48;;;;;;;;;;;23.60;54.00;;;23.86;36.89;98926.06;4985122;28;124107;-76
2023/07/14 00:29:26;;;;;;;;;;;23.50;54.00;;;23.84;36.96;98917.16;4983916;28;123651;-76
2023/07/14 00:31:52;;;;;;;;;;;23.60;54.20;;;23.83;37.01;98928.84;4983727;28;115056;-76
2023/07/14 00:34:21;;;;;;;;;;;23.50;54.20;;;23.81;37.20;98918.78;4987371;28;113739;-76
2023/07/14 00:36:51;;;;;;;;;;;23.50;54.40;;;23.81;37.26;98912.31;4969506;28;123816;-76
2023/07/14 00:39:17;;;;;;;;;;;23.50;54.50;;;23.80;37.44;98917.16;4984563;28;123177;-76
2023/07/14 00:41:44;;;;;;;;;;;23.50;54.60;;;23.79;37.78;98915.53;4983420;28;115419;-76
2023/07/14 00:44:13;;;;;;;;;;;23.50;54.80;;;23.76;37.68;98910.69;4970472;28;114254;-76
2023/07/14 00:46:42;;;;;;;;;;;23.50;55.00;;;23.74;37.64;98913.09;4985209;28;125494;-76
2023/07/14 00:49:21;;;;;;;;;;;23.50;55.10;;;23.73;37.80;98917.13;4983946;28;124118;-76
2023/07/14 00:51:48;;;;;;;;;;;23.40;55.20;;;23.71;37.94;98913.06;4966319;28;114252;-76
2023/07/14 00:54:25;;;;;;;;;;;23.40;55.30;;;23.69;37.98;98907.81;4967804;28;113605;-76
2023/07/14 00:56:52;;;;;;;;;;;23.40;55.40;;;23.69;37.98;98904.19;4968144;28;124497;-76
2023/07/14 00:59:18;;;;;;;;;;;23.40;55.50;;;23.68;38.29;98902.59;4988682;28;124245;-76
2023/07/14 01:02:22;;;;;;;;;;;23.40;55.60;;;23.66;38.08;98899.34;4988716;28;116216;-76
2023/07/14 01:04:56;;;;;;;;;;;23.40;55.70;;;23.64;38.01;98901.75;4987029;28;113883;-76
2023/07/14 01:07:29;;;;;;;;;;;23.40;55.80;;;23.63;38.14;98905.78;4988778;28;125562;-76
2023/07/14 01:10:01;;;;;;;;;;;23.40;55.90;;;23.62;38.38;98909.81;4971521;28;123701;-76
2023/07/14 01:12:32;;;;;;;;;;;23.30;55.90;;;23.61;38.25;98897.72;4987643;28;115115;-76
2023/07/14 01:14:59;;;;;;;;;;;23.30;56.10;;;23.61;38.50;98894.88;4972823;28;112229;-76
2023/07/14 01:17:25;;;;;;;;;;;23.30;56.20;;;23.60;38.51;98902.53;4987774;28;124213;-76
2023/07/14 01:20:01;;;;;;;;;;;23.30;56.10;;;23.58;38.62;98892.88;4989038;28;123852;-76
2023/07/14 01:22:36;;;;;;;;;;;23.30;56.10;;;23.56;38.47;98895.28;4986426;28;114339;-76
2023/07/14 01:25:05;;;;;;;;;;;23.30;56.20;;;23.53;38.66;98891.22;4988472;28;113983;-76
2023/07/14 01:27:31;;;;;;;;;;;23.20;56.10;;;23.52;38.55;98888.81;4988939;28;122951;-76
2023/07/14 01:29:59;;;;;;;;;;;23.20;56.10;;;23.49;38.63;98889.63;4983480;28;124045;-76
2023/07/14 01:32:38;;;;;;;;;;;23.20;56.20;;;23.47;38.50;98890.00;4983927;28;115513;-76
2023/07/14 01:35:05;;;;;;;;;;;23.20;56.20;;;23.45;38.55;98888.78;4982722;28;113846;-76
2023/07/14 01:37:35;;;;;;;;;;;23.20;56.30;;;23.43;38.34;98886.38;4969731;28;123784;-77
2023/07/14 01:40:05;;;;;;;;;;;23.10;56.30;;;23.41;38.57;98882.34;4973198;28;123740;-77
2023/07/14 01:42:35;;;;;;;;;;;23.10;56.30;;;23.40;38.41;98884.34;4987688;28;114968;-76
2023/07/14 01:45:01;;;;;;;;;;;23.10;56.30;;;23.37;38.56;98887.94;4970028;28;114192;-76
2023/07/14 01:47:30;;;;;;;;;;;23.10;56.40;;;23.34;38.75;98885.91;4965973;28;124262;-76
2023/07/14 01:49:57;;;;;;;;;;;23.10;56.50;;;23.32;38.55;98891.16;4976587;28;123725;-76
2023/07/14 01:52:34;;;;;;;;;;;23.00;56.50;;;23.30;38.82;98888.75;4985687;28;114444;-76
2023/07/14 01:55:04;;;;;;;;;;;23.00;56.50;;;23.25;38.57;98880.66;4982129;28;113769;-77
2023/07/14 01:57:33;;;;;;;;;;;23.00;56.60;;;23.23;38.87;98874.59;5002508;28;124183;-76
2023/07/14 02:00:09;;;;;;;;;;;23.00;56.70;;;23.21;38.80;98879.81;4968291;28;123380;-76
2023/07/14 02:02:41;;;;;;;;;;;23.00;56.80;;;23.18;39.06;98880.63;4982985;28;114611;-75
2023/07/14 02:05:16;;;;;;;;;;;22.90;56.80;;;23.17;38.90;98886.66;4990999;28;113503;-75
2023/07/14 02:07:42;;;;;;;;;;;22.90;57.00;;;23.15;39.14;98882.22;4986979;28;123892;-75
2023/07/14 02:10:15;;;;;;;;;;;22.90;57.00;;;23.13;39.05;98878.16;4978154;28;123041;-75
2023/07/14 02:12:46;;;;;;;;;;;22.90;57.70;;;23.10;39.16;98873.31;4985668;28;114939;-75
2023/07/14 02:15:17;;;;;;;;;;;22.90;57.10;;;23.05;39.38;98871.72;4986846;28;113577;-75
2023/07/14 02:17:43;;;;;;;;;;;22.80;57.10;;;23.04;39.26;98869.28;4986622;28;124112;-75
2023/07/14 02:20:18;;;;;;;;;;;22.80;57.20;;;23.01;39.34;98864.44;4983610;28;124043;-75
2023/07/14 02:22:45;;;;;;;;;;;22.80;57.30;;;22.99;39.49;98866.84;4964855;28;114883;-76
2023/07/14 02:25:16;;;;;;;;;;;22.80;57.40;;;22.95;39.52;98863.97;4984572;28;115038;-75
2023/07/14 02:27:43;;;;;;;;;;;22.90;57.60;;;22.93;39.51;98867.16;4972125;28;123435;-74
2023/07/14 02:30:12;;;;;;;;;;;22.70;57.50;;;22.89;39.47;98859.88;4988227;28;123996;-75
2023/07/14 02:32:44;;;;;;;;;;;22.70;57.60;;;22.85;39.55;98868.34;4990507;28;114415;-74
2023/07/14 02:35:24;;;;;;;;;;;22.60;57.50;;;22.80;39.71;98865.88;4986057;28;114009;-75
2023/07/14 02:38:04;;;;;;;;;;;22.60;57.50;;;22.80;39.54;98863.06;4985308;28;124203;-75
2023/07/14 02:40:50;;;;;;;;;;;22.60;57.60;;;22.78;39.87;98861.84;4984603;28;124185;-75
2023/07/14 02:43:18;;;;;;;;;;;22.50;57.60;;;22.76;39.65;98864.28;4983483;28;114710;-75
2023/07/14 02:46:08;;;;;;;;;;;22.50;57.80;;;22.73;39.93;98860.22;4977260;28;113617;-75
2023/07/14 02:48:41;;;;;;;;;;;22.50;57.90;;;22.72;39.89;98858.59;4984180;28;124199;-74
2023/07/14 02:51:07;;;;;;;;;;;22.50;57.90;;;22.69;39.82;98853.75;4983517;28;124338;-74
2023/07/14 02:53:33;;;;;;;;;;;22.40;57.90;;;22.68;39.87;98852.16;4968694;28;113400;-74
2023/07/14 02:56:03;;;;;;;;;;;22.40;58.00;;;22.66;40.17;98858.16;4972839;28;112673;-74
2023/07/14 02:58:30;;;;;;;;;;;22.40;58.10;;;22.64;40.04;98857.72;4985629;28;124976;-74
2023/07/14 03:01:02;;;;;;;;;;;22.40;58.20;;;22.63;40.04;98855.31;4986212;28;123861;-74
2023/07/14 03:03:30;;;;;;;;;;;22.40;58.30;;;22.59;40.14;98857.28;4989143;28;114244;-74
2023/07/14 03:05:56;;;;;;;;;;;22.30;58.30;;;22.57;40.36;98854.88;4979333;28;113386;-74
2023/07/14 03:08:23;;;;;;;;;;;22.30;58.30;;;22.56;40.12;98856.06;4972473;28;123565;-74
2023/07/14 03:10:56;;;;;;;;;;;22.30;58.40;;;22.53;40.40;98850.44;4983459;28;124611;-74
2023/07/14 03:13:25;;;;;;;;;;;22.30;58.50;;;22.50;40.29;98852.81;4991794;28;115649;-74
2023/07/14 03:15:51;;;;;;;;;;;22.30;58.60;;;22.48;40.31;98843.94;4989287;28;114616;-74
2023/07/14 03:18:18;;;;;;;;;;;22.20;58.60;;;22.44;40.44;98839.50;4990209;28;124166;-74
2023/07/14 03:20:45;;;;;;;;;;;22.20;58.70;;;22.40;40.32;98833.03;4991111;28;123292;-74
2023/07/14 03:23:11;;;;;;;;;;;22.20;58.80;;;22.37;40.52;98837.44;4989180;28;114172;-74
2023/07/14 03:25:39;;;;;;;;;;;22.10;58.80;;;22.36;40.98;98835.84;4990496;28;113515;-75
2023/07/14 03:28:05;;;;;;;;;;;22.10;58.90;;;22.35;40.48;98837.00;4988885;28;124693;-74
2023/07/14 03:30:37;;;;;;;;;;;22.10;59.00;;;22.34;40.64;98831.78;4989182;28;124046;-74
2023/07/14 03:33:03;;;;;;;;;;;22.10;59.10;;;22.33;40.68;98830.19;4989051;28;114185;-74
2023/07/14 03:35:29;;;;;;;;;;;22.10;59.10;;;22.31;40.65;98827.75;4975746;28;113673;-75
2023/07/14 03:37:56;;;;;;;;;;;22.10;59.20;;;22.31;40.98;98827.75;4977113;28;124102;-74
2023/07/14 03:40:22;;;;;;;;;;;22.00;59.20;;;22.30;40.81;98826.13;4987190;28;124474;-75
2023/07/14 03:42:48;;;;;;;;;;;22.00;59.30;;;22.29;40.81;98824.50;4985955;28;114468;-74
2023/07/14 03:45:14;;;;;;;;;;;22.00;59.40;;;22.28;41.12;98823.69;4989851;28;113700;-74
2023/07/14 03:47:44;;;;;;;;;;;22.00;59.50;;;22.28;40.84;98831.34;4985431;28;124936;-77
2023/07/14 03:50:13;;;;;;;;;;;22.00;59.50;;;22.25;40.78;98823.69;4987035;28;124039;-77
2023/07/14 03:52:41;;;;;;;;;;;22.00;59.50;;;22.25;41.04;98815.25;4988640;28;114162;-77
2023/07/14 03:55:09;;;;;;;;;;;22.00;59.60;;;22.26;41.10;98819.66;4989985;28;113714;-77
2023/07/14 03:57:38;;;;;;;;;;;22.00;59.70;;;22.26;41.12;98820.47;4988463;28;124788;-74
2023/07/14 04:00:12;;;;;;;;;;;22.00;59.80;;;22.26;41.19;98819.66;4986838;28;123856;-74
2023/07/14 04:02:39;;;;;;;;;;;22.00;59.90;;;22.25;41.21;98818.06;4987562;28;115526;-74
2023/07/14 04:05:07;;;;;;;;;;;22.00;60.10;;;22.26;41.51;98819.66;4982204;28;115348;-74
2023/07/14 04:07:36;;;;;;;;;;;21.90;60.40;;;22.23;41.43;98812.81;4990444;28;124204;-74
2023/07/14 04:10:04;;;;;;;;;;;21.90;60.40;;;22.23;41.63;98823.25;4987677;28;124940;-74
2023/07/14 04:12:31;;;;;;;;;;;21.90;60.60;;;22.21;41.71;98823.63;4989615;28;113839;-75
2023/07/14 04:14:58;;;;;;;;;;;21.90;60.80;;;22.24;41.65;98813.59;4988117;28;113510;-74
2023/07/14 04:17:24;;;;;;;;;;;21.90;60.90;;;22.23;41.50;98826.88;4989570;28;124327;-76
2023/07/14 04:19:53;;;;;;;;;;;21.90;60.90;;;22.22;41.71;98825.28;4991728;28;123361;-74
2023/07/14 04:22:21;;;;;;;;;;;21.90;60.90;;;22.21;41.83;98834.91;4991037;28;113957;-74
2023/07/14 04:24:47;;;;;;;;;;;21.90;61.00;;;22.20;42.28;98838.13;4986899;28;113482;-75
2023/07/14 04:27:16;;;;;;;;;;;21.90;61.50;;;22.19;42.15;98836.47;4987133;28;124222;-74
2023/07/14 04:29:42;;;;;;;;;;;21.90;61.50;;;22.17;42.24;98827.63;4990482;28;123781;-75
2023/07/14 04:32:11;;;;;;;;;;;21.90;61.70;;;22.17;42.59;98847.31;4986304;28;114645;-75
2023/07/14 04:34:37;;;;;;;;;;;21.90;61.90;;;22.18;42.57;98840.47;4988807;28;113981;-74
2023/07/14 04:37:03;;;;;;;;;;;21.90;62.10;;;22.16;42.61;98835.22;4988013;28;124052;-76
2023/07/14 04:39:31;;;;;;;;;;;21.90;62.40;;;22.13;42.79;98838.03;4988310;28;123966;-76
2023/07/14 04:41:57;;;;;;;;;;;21.80;62.60;;;22.08;42.78;98836.38;4988594;28;114529;-76
2023/07/14 04:44:26;;;;;;;;;;;21.80;62.60;;;22.05;43.00;98825.88;4984090;28;112876;-76
2023/07/14 04:46:58;;;;;;;;;;;21.80;62.90;;;22.03;43.44;98831.94;4986439;28;124247;-76
2023/07/14 04:49:25;;;;;;;;;;;21.80;63.10;;;22.03;43.08;98837.56;4985665;28;123991;-76
2023/07/14 04:51:51;;;;;;;;;;;21.80;63.20;;;22.03;43.69;98829.09;4983501;28;115705;-76
2023/07/14 04:54:17;;;;;;;;;;;21.80;63.50;;;22.06;43.28;98833.97;4990305;28;114236;-76
2023/07/14 04:56:44;;;;;;;;;;;21.80;63.70;;;22.08;43.68;98827.91;4988370;28;124207;-76
2023/07/14 04:59:10;;;;;;;;;;;21.80;63.80;;;22.10;43.44;98824.72;4981456;28;125168;-76
2023/07/14 05:01:36;;;;;;;;;;;21.80;63.80;;;22.11;43.53;98823.53;4988454;28;114963;-79
2023/07/14 05:04:03;;;;;;;;;;;21.80;63.80;;;22.10;43.73;98827.53;4990491;28;112710;-76
2023/07/14 05:06:29;;;;;;;;;;;21.80;63.90;;;22.06;43.50;98821.91;4991493;28;123943;-76
2023/07/14 05:08:55;;;;;;;;;;;21.80;64.00;;;22.06;43.39;98819.88;4970056;28;122991;-77
2023/07/14 05:11:22;;;;;;;;;;;21.80;63.90;;;22.04;43.69;98822.28;4988729;28;114433;-77
2023/07/14 05:13:51;;;;;;;;;;;21.80;64.10;;;22.02;44.05;98819.03;4987831;28;113778;-76
2023/07/14 05:16:17;;;;;;;;;;;21.70;64.30;;;22.00;44.11;98818.63;4987883;28;124506;-77
2023/07/14 05:18:43;;;;;;;;;;;21.70;64.80;;;21.99;43.97;98816.19;4987597;28;123931;-76
2023/07/14 05:21:10;;;;;;;;;;;21.60;65.00;;;22.00;43.94;98806.56;4987554;28;114402;-77
2023/07/14 05:23:39;;;;;;;;;;;21.70;65.10;;;21.99;44.13;98811.38;4988274;28;113687;-76
2023/07/14 05:26:06;;;;;;;;;;;21.70;65.00;;;21.99;44.15;98813.38;4987202;28;124741;-76
2023/07/14 05:28:34;;;;;;;;;;;21.70;65.20;;;21.98;44.38;98814.59;4988516;28;123757;-76
2023/07/14 05:31:02;;;;;;;;;;;21.60;65.30;;;22.00;43.99;98809.38;4977170;28;113582;-76
2023/07/14 05:33:28;;;;;;;;;;;21.70;65.30;;;22.05;44.02;98812.63;4975238;28;113719;-76
2023/07/14 05:35:55;;;;;;;;;;;21.70;65.20;;;22.10;44.02;98813.47;4978799;28;123078;-76
2023/07/14 05:38:22;;;;;;;;;;;21.70;65.10;;;22.14;43.79;98822.75;4974871;28;124078;-78
2023/07/14 05:40:56;;;;;;;;;;;21.80;65.30;;;22.18;43.83;98826.41;4985986;28;114819;-76
2023/07/14 05:43:24;;;;;;;;;;;21.80;65.20;;;22.24;43.85;98824.88;4986299;28;114745;-76
2023/07/14 05:45:50;;;;;;;;;;;21.90;65.40;;;22.31;43.74;98821.31;4973220;28;123448;-76
2023/07/14 05:48:17;;;;;;;;;;;21.90;65.30;;;22.34;43.78;98828.97;4982670;28;123225;-76
2023/07/14 05:50:45;;;;;;;;;;;21.90;65.10;;;22.35;43.61;98817.31;4985813;28;114505;-76
2023/07/14 05:53:12;;;;;;;;;;;22.00;65.20;;;22.39;43.45;98818.16;4979714;28;113674;-76
2023/07/14 05:55:38;;;;;;;;;;;22.00;65.10;;;22.47;43.36;98808.56;4978632;28;124419;-76
2023/07/14 05:58:07;;;;;;;;;;;22.00;65.00;;;22.57;43.18;98811.81;4977018;28;124049;-82
2023/07/14 06:00:38;;;;;;;;;;;22.10;65.10;;;22.63;43.17;98805.44;4977997;28;114681;-79
2023/07/14 06:03:06;;;;;;;;;;;22.20;65.00;;;22.67;43.10;98808.25;4986067;28;113821;-78
2023/07/14 06:05:33;;;;;;;;;;;22.20;64.80;;;22.68;42.99;98802.25;4985665;28;124193;-78
2023/07/14 06:07:59;;;;;;;;;;;22.20;65.50;;;22.72;42.91;98807.88;4985531;28;124235;-78
2023/07/14 06:10:25;;;;;;;;;;;22.30;64.80;;;22.75;42.65;98795.81;4986937;28;114752;-78
2023/07/14 06:12:52;;;;;;;;;;;22.30;64.60;;;22.76;42.49;98799.47;4986954;28;113716;-78
2023/07/14 06:15:18;;;;;;;;;;;22.30;64.30;;;22.78;42.44;98799.88;4972362;28;124276;-78
2023/07/14 06:17:44;;;;;;;;;;;22.30;64.30;;;22.79;42.22;98802.31;4987921;28;123208;-78
2023/07/14 06:20:14;;;;;;;;;;;22.40;64.20;;;22.74;42.24;98799.84;4985677;28;114472;-77
2023/07/14 06:22:40;;;;;;;;;;;22.30;63.90;;;22.71;42.56;98793.00;4984751;28;117825;-78
2023/07/14 06:25:09;;;;;;;;;;;21.50;63.30;;;22.72;42.59;98797.44;4986692;28;124208;-78
2023/07/14 06:27:35;;;;;;;;;;;21.10;62.80;;;22.81;42.65;98782.19;4985578;28;124096;-77
2023/07/14 06:30:02;;;;;;;;;;;22.40;64.10;;;22.92;42.44;98778.22;4987829;28;116215;-78
2023/07/14 06:32:28;;;;;;;;;;;22.50;64.20;;;23.04;42.37;98791.16;4986078;28;115428;-79
2023/07/14 06:34:56;;;;;;;;;;;22.50;64.10;;;23.14;41.91;98784.78;4985602;28;124102;-77
2023/07/14 06:37:26;;;;;;;;;;;22.60;64.00;;;23.22;41.80;98784.81;4987106;28;123984;-78
2023/07/14 06:39:53;;;;;;;;;;;22.70;64.00;;;23.32;41.79;98775.53;4991753;28;113651;-78
2023/07/14 06:42:19;;;;;;;;;;;22.80;64.00;;;23.41;41.48;98780.81;4989566;28;113517;-78
2023/07/14 06:44:46;;;;;;;;;;;22.80;63.80;;;23.48;41.47;98780.81;4973542;28;124253;-78
2023/07/14 06:47:14;;;;;;;;;;;22.90;63.80;;;23.58;41.64;98777.22;4988946;28;123660;-78
2023/07/14 06:49:41;;;;;;;;;;;23.00;63.70;;;23.70;41.38;98765.56;4975888;28;115126;-77
2023/07/14 06:52:07;;;;;;;;;;;23.10;63.80;;;23.77;41.35;98757.13;4986128;28;113896;-77
2023/07/14 06:54:34;;;;;;;;;;;23.20;63.60;;;23.77;40.49;98762.75;4987632;28;124384;-77
2023/07/14 06:57:00;;;;;;;;;;;23.20;63.00;;;23.75;40.85;98770.00;4988862;28;124632;-78
2023/07/14 06:59:26;;;;;;;;;;;23.20;62.70;;;23.77;40.91;98761.97;4990034;28;114681;-77
2023/07/14 07:01:57;;;;;;;;;;;23.30;62.80;;;23.84;40.87;98758.34;4991282;28;112773;-78
2023/07/14 07:04:25;;;;;;;;;;;23.40;62.90;;;23.95;40.48;98761.97;4990615;28;123313;-77
2023/07/14 07:06:53;;;;;;;;;;;23.40;62.80;;;24.07;40.47;98755.91;4990986;28;124589;-78
2023/07/14 07:09:22;;;;;;;;;;;23.50;62.70;;;24.19;40.55;98740.56;4988580;28;114476;-78
2023/07/14 07:11:48;;;;;;;;;;;23.60;62.80;;;24.30;39.99;98730.06;4990344;28;112732;-80
2023/07/14 07:14:14;;;;;;;;;;;23.70;62.80;;;24.44;40.08;98746.19;4989360;28;125038;-78
2023/07/14 07:16:41;;;;;;;;;;;23.80;62.70;;;24.54;39.98;98739.72;4987480;28;124584;-77
2023/07/14 07:19:09;;;;;;;;;;;23.90;62.50;;;24.66;39.54;98742.13;4989423;28;115484;-78
2023/07/14 07:21:38;;;;;;;;;;;24.00;62.10;;;24.74;39.51;98742.06;4984648;28;114884;-78
2023/07/14 07:24:05;;;;;;;;;;;24.10;61.80;;;24.75;39.15;98733.19;4989370;28;123602;-78
2023/07/14 07:26:32;;;;;;;;;;;24.10;61.00;;;24.75;38.93;98732.38;4988274;28;124153;-79
2023/07/14 07:28:58;;;;;;;;;;;24.20;61.00;;;24.76;38.80;98728.34;4978536;28;114881;-80
2023/07/14 07:31:25;;;;;;;;;;;24.20;60.90;;;24.76;38.99;98728.34;4987632;28;113134;-80
2023/07/14 07:33:51;;;;;;;;;;;24.20;60.60;;;24.81;38.69;98719.44;4984146;28;124448;-80
2023/07/14 07:36:17;;;;;;;;;;;24.30;60.80;;;24.91;38.79;98729.91;4989599;28;124759;-79
2023/07/14 07:38:49;;;;;;;;;;;24.30;60.70;;;25.03;38.77;98722.97;4981565;28;114766;-80
2023/07/14 07:41:17;;;;;;;;;;;24.40;60.60;;;25.12;38.04;98721.31;4987686;28;113527;-79
2023/07/14 07:43:44;;;;;;;;;;;24.50;60.20;;;25.19;38.15;98723.31;4978003;28;124501;-77
2023/07/14 07:46:11;;;;;;;;;;;24.60;60.30;;;25.31;37.75;98722.03;4968452;28;123332;-78
2023/07/14 07:48:38;;;;;;;;;;;24.70;60.10;;;25.40;37.44;98716.72;4986397;28;113958;-79
2023/07/14 07:51:05;;;;;;;;;;;24.80;59.80;;;25.48;37.21;98717.47;4987977;28;114061;-79
2023/07/14 07:53:32;;;;;;;;;;;24.90;59.20;;;25.55;36.81;98717.44;4987603;28;125008;-79
2023/07/14 07:55:59;;;;;;;;;;;24.90;58.80;;;25.59;36.34;98715.38;4989919;28;124492;-79
2023/07/14 07:58:25;;;;;;;;;;;25.00;58.10;;;25.66;36.14;98706.03;4987759;28;113390;-80
2023/07/14 08:00:57;;;;;;;;;;;25.10;57.90;;;25.73;36.09;98700.28;4989573;28;113969;-79
2023/07/14 08:03:24;;;;;;;;;;;25.10;57.50;;;25.78;35.73;98692.16;4990959;28;123726;-80
2023/07/14 08:05:50;;;;;;;;;;;25.10;56.80;;;25.80;35.41;98691.75;4988686;28;123886;-80
2023/07/14 08:08:18;;;;;;;;;;;25.10;56.70;;;25.78;35.40;98694.97;4990057;28;114700;-79
2023/07/14 08:10:47;;;;;;;;;;;25.10;56.20;;;25.85;35.43;98691.34;4988025;28;114896;-80
2023/07/14 08:13:14;;;;;;;;;;;25.20;56.30;;;25.96;34.36;98677.88;4987813;28;124348;-79
2023/07/14 08:15:41;;;;;;;;;;;25.30;55.10;;;26.00;33.32;98678.63;4988529;28;124538;-80
2023/07/14 08:18:07;;;;;;;;;;;25.30;53.00;;;26.02;31.86;98672.56;4985910;28;114433;-80
2023/07/14 08:20:37;;;;;;;;;;;25.30;51.60;;;26.03;32.28;98673.34;4987210;28;113464;-80
2023/07/14 08:23:04;;;;;;;;;;;25.40;52.00;;;26.07;32.50;98668.47;4987958;28;124503;-80
2023/07/14 08:25:31;;;;;;;;;;;25.40;51.60;;;26.13;32.37;98670.41;4984342;28;123961;-80
2023/07/14 08:27:58;;;;;;;;;;;25.50;51.50;;;26.22;31.81;98676.41;4990115;28;114376;-80
2023/07/14 08:30:24;;;;;;;;;;;25.50;51.30;;;26.32;32.11;98679.53;4989292;28;113649;-80
2023/07/14 08:32:51;;;;;;;;;;;25.60;51.30;;;26.39;31.94;98673.78;4987843;28;124980;-80
2023/07/14 08:35:18;;;;;;;;;;;25.70;51.10;;;26.48;31.72;98671.25;4974079;28;123981;-80
2023/07/14 08:37:45;;;;;;;;;;;25.80;51.00;;;26.56;31.01;98674.81;4987858;28;114618;-80
2023/07/14 08:40:15;;;;;;;;;;;25.90;50.20;;;26.60;31.35;98665.06;4974755;28;112891;-79
2023/07/14 08:42:52;;;;;;;;;;;26.00;50.00;;;26.65;30.73;98664.59;4974541;28;123348;-80
2023/07/14 08:45:24;;;;;;;;;;;26.00;49.80;;;26.72;30.73;98658.00;4973985;28;124190;-80
2023/07/14 08:48:26;;;;;;;;;;;26.10;49.70;;;26.77;30.76;98663.22;4973590;28;113245;-79
2023/07/14 08:50:57;;;;;;;;;;;26.20;49.00;;;26.84;30.22;98653.78;4980496;28;114011;-81
2023/07/14 08:53:26;;;;;;;;;;;26.30;48.70;;;26.88;30.07;98651.72;4988411;28;124195;-81
2023/07/14 08:56:01;;;;;;;;;;;26.20;48.50;;;26.94;30.10;98649.22;4997990;28;124221;-81
2023/07/14 08:58:30;;;;;;;;;;;26.30;48.00;;;27.01;29.79;98654.78;4986465;28;116004;-78
2023/07/14 09:01:15;;;;;;;;;;;26.30;48.30;;;27.07;30.23;98647.41;4986061;28;114732;-80
2023/07/14 09:03:44;;;;;;;;;;;26.50;48.90;;;27.15;30.45;98648.09;4989183;28;123595;-81
2023/07/14 09:06:16;;;;;;;;;;;26.60;48.90;;;27.21;30.61;98637.91;4989007;28;124044;-81
2023/07/14 09:08:43;;;;;;;;;;;26.60;48.80;;;27.25;30.37;98642.28;4987935;28;114528;-80
2023/07/14 09:11:37;;;;;;;;;;;26.60;48.70;;;27.27;30.65;98648.34;4973064;28;111709;-81
2023/07/14 09:14:22;;;;;;;;;;;26.60;48.90;;;27.29;30.29;98651.53;4988197;28;123359;-81
2023/07/14 09:17:19;;;;;;;;;;;26.70;48.70;;;27.29;30.75;98648.69;4986867;28;123756;-81
2023/07/14 09:19:48;;;;;;;;;;;26.80;48.80;;;27.37;30.65;98645.75;4980953;28;114488;-79
2023/07/14 09:22:20;;;;;;;;;;;26.80;48.90;;;27.47;30.69;98639.13;4987419;28;113661;-78
2023/07/14 09:24:59;;;;;;;;;;;27.00;49.10;;;27.54;30.49;98636.16;4990233;28;124375;-81
2023/07/14 09:27:27;;;;;;;;;;;27.00;48.70;;;27.60;30.62;98636.47;4989796;28;124317;-81
2023/07/14 09:29:54;;;;;;;;;;;27.10;48.90;;;27.66;30.38;98629.84;4984748;28;114539;-80
2023/07/14 09:32:24;;;;;;;;;;;27.10;48.70;;;27.70;30.35;98624.09;4986046;28;113580;-80
2023/07/14 09:34:59;;;;;;;;;;;27.20;48.60;;;27.74;30.39;98622.00;4983385;28;124174;-81
2023/07/14 09:37:32;;;;;;;;;;;27.20;48.70;;;27.81;30.70;98636.13;4961404;28;122878;-81
2023/07/14 09:40:18;;;;;;;;;;;27.30;48.80;;;27.88;30.34;98627.47;4985577;28;114465;-78
2023/07/14 09:42:55;;;;;;;;;;;27.30;48.50;;;27.92;29.98;98622.53;4986620;28;113982;-79
2023/07/14 09:45:25;;;;;;;;;;;27.40;48.30;;;27.93;30.13;98612.75;4983175;28;124795;-79
2023/07/14 09:47:56;;;;;;;;;;;27.50;48.20;;;27.95;30.14;98620.84;4986923;28;124554;-79
2023/07/14 09:50:23;;;;;;;;;;;27.50;48.20;;;28.00;30.24;98620.34;4985464;28;114968;-79
2023/07/14 09:53:01;;;;;;;;;;;27.50;48.20;;;28.07;30.32;98620.19;4985172;28;114760;-80
2023/07/14 09:55:31;;;;;;;;;;;27.60;48.30;;;28.11;29.75;98618.09;4985132;28;124731;-78
2023/07/14 09:57:57;;;;;;;;;;;27.60;48.00;;;28.14;29.87;98608.72;4985450;28;124021;-79
2023/07/14 10:00:26;;;;;;;;;;;27.70;47.90;;;28.17;29.69;98619.19;4984819;28;114616;-78
2023/07/14 10:03:07;;;;;;;;;;;27.70;47.60;;;28.19;29.70;98613.88;4982977;28;113891;-79
2023/07/14 10:05:53;;;;;;;;;;;27.70;47.60;;;28.23;29.42;98616.66;4952589;28;123843;-79
2023/07/14 10:08:24;;;;;;;;;;;27.80;47.40;;;28.20;29.08;98617.53;4975541;28;124901;-79
2023/07/14 10:10:55;;;;;;;;;;;27.80;47.10;;;28.19;29.36;98605.34;4984075;28;114311;-79
2023/07/14 10:13:26;;;;;;;;;;;27.70;46.80;;;28.22;29.36;98614.25;4986762;28;113681;-80
2023/07/14 10:16:11;;;;;;;;;;;27.70;46.90;;;28.23;29.47;98605.28;4986354;28;124127;-79
2023/07/14 10:18:54;;;;;;;;;;;27.70;46.80;;;28.26;29.20;98598.72;4990484;28;124614;-79
2023/07/14 10:21:32;;;;;;;;;;;27.80;46.80;;;28.30;29.14;98599.47;4987334;28;114844;-79
2023/07/14 10:24:05;;;;;;;;;;;27.80;46.60;;;28.35;28.95;98586.78;4988832;28;113609;-80
2023/07/14 10:26:42;;;;;;;;;;;27.90;46.60;;;28.38;28.96;98597.28;4983105;28;124276;-80
2023/07/14 10:29:16;;;;;;;;;;;27.90;46.30;;;28.42;28.63;98583.78;4987994;28;124115;-80
2023/07/14 10:31:45;;;;;;;;;;;28.00;45.90;;;28.46;28.75;98584.53;4986495;28;114668;-80
2023/07/14 10:34:26;;;;;;;;;;;28.00;45.90;;;28.53;28.53;98580.72;4989662;28;113741;-80
2023/07/14 10:36:57;;;;;;;;;;;28.10;46.00;;;28.57;28.65;98576.56;4987080;28;124366;-80
2023/07/14 10:39:32;;;;;;;;;;;28.10;45.90;;;28.65;28.69;98573.59;4978530;28;123892;-80
2023/07/14 10:42:01;;;;;;;;;;;28.20;45.90;;;28.69;28.15;98579.97;4989892;28;114493;-79
2023/07/14 10:44:40;;;;;;;;;;;28.20;45.70;;;28.72;27.78;98576.25;4995893;28;114928;-79
2023/07/14 10:47:23;;;;;;;;;;;28.20;45.20;;;28.73;28.06;98569.34;4970826;28;124207;-79
2023/07/14 10:49:57;;;;;;;;;;;28.30;45.10;;;28.79;28.12;98567.56;4992516;28;124208;-80
2023/07/14 10:52:37;;;;;;;;;;;28.30;45.00;;;28.81;28.00;98570.78;4978523;28;114291;-79
2023/07/14 10:55:15;;;;;;;;;;;28.30;44.70;;;28.86;27.43;98575.94;4984224;28;114019;-80
2023/07/14 10:57:46;;;;;;;;;;;28.40;44.40;;;28.90;27.30;98573.78;4987410;28;125083;-80
2023/07/14 11:00:19;;;;;;;;;;;28.40;44.10;;;28.90;27.30;98565.25;4993150;28;123643;-80
2023/07/14 11:02:51;;;;;;;;;;;28.50;43.80;;;28.91;27.09;98564.03;4982150;28;114380;-81
2023/07/14 11:05:19;;;;;;;;;;;28.50;43.40;;;28.94;26.69;98562.34;4989006;28;113769;-81
2023/07/14 11:07:46;;;;;;;;;;;28.50;43.10;;;28.95;26.86;98561.91;4986208;28;124870;-80
2023/07/14 11:10:24;;;;;;;;;;;28.60;43.30;;;28.97;27.13;98559.41;4988936;28;124225;-80
2023/07/14 11:13:04;;;;;;;;;;;28.60;43.50;;;29.00;27.11;98555.69;4981103;28;114734;-80
2023/07/14 11:15:42;;;;;;;;;;;28.60;43.40;;;29.01;26.65;98551.59;4978250;28;113711;-80
2023/07/14 11:18:30;;;;;;;;;;;28.60;42.90;;;29.01;26.80;98551.59;4988327;28;124205;-81
2023/07/14 11:21:11;;;;;;;;;;;28.70;42.90;;;29.03;26.69;98549.09;4988666;28;123264;-80
2023/07/14 11:23:44;;;;;;;;;;;28.70;42.60;;;29.02;26.67;98544.66;4988223;28;114588;-81